Delta Virtual Airport Information Service

Taiwan Taoyuan International Airport

ICAO: RCTP Country: Taiwan
Latitude: 25.0777 Longitude: 121.233
Latest Arrival : DAC924 (PGUM-RCTP) Latest Departure : DAC1776 (RCTP-RJAA)


WX CaptureLIVE
Data provided by noaa.gov | Fetched at 14:03:36

METAR : RCTP 291830Z 05013KT 6000 -RA FEW012 BKN025 BKN050 22/20 Q1008 NOSIG RMK A2978

TAF : RCTP 291700Z 2918/3024 04012KT 9999 FEW015 BKN032 TEMPO 2918/2924 08008KT TEMPO 3004/3010 03018KT BECMG 3012/3014 07010KT


Runway Data for RCTP
Data provided by openaviationdata.com

Runway ID Mag Var Hdg Length Elevation Surface ILS Freq ILS Id ILS Slope
5 -3 52° 12020 ft 107 ft Concrete 111.1 ITIA 3
6 -3 52° 11001 ft 107 ft Concrete 110.7 ICKS 3
23 -3 232° 12020 ft 107 ft Concrete 109.3 ITYA 3
24 -3 232° 11001 ft 107 ft Concrete 111.9 ICJN 3

Taiwan Taoyuan International Airport, Taiwan
Use only for reference purposes



Not for navigational purposes.